Terminal Aerodrome Forecast
Issued by NWS

Current Version | Previous Version | Text Only | Print | Product List | Glossary Off
Versions: 1 2 3 4 5 6 7 8 9 10 11 12 13 14 15 16 17 18 19 20 21 22 23 24 25 26 27 28 29 30

166
FTUS41 KRLX 211740 AAB
TAFCKB
TAF AMD
KCKB 211740Z 2118/2218 23011G25KT P6SM VCTS BKN040CB
     FM211900 25010G17KT 5SM SHRA BKN025
     FM220600 01005KT 2SM SHRA OVC007
     FM221400 04005KT 4SM +SHRA OVC015=

USA.gov is the U.S. government's official web portal to all federal, state and local government web resources and services.